sensor_id;sensor_type;location;lat;lon;timestamp;temperature;humidity
70851;DHT22;58475;49.662;9.636;2023-01-24T00:00:08;-0.37;99.99
70851;DHT22;58475;49.662;9.636;2023-01-24T00:02:34;-0.35;99.99
70851;DHT22;58475;49.662;9.636;2023-01-24T00:04:59;-0.35;99.99
70851;DHT22;58475;49.662;9.636;2023-01-24T00:07:25;-0.35;99.99
70851;DHT22;58475;49.662;9.636;2023-01-24T00:09:50;-0.32;99.99
70851;DHT22;58475;49.662;9.636;2023-01-24T00:12:15;-0.34;99.99
70851;DHT22;58475;49.662;9.636;2023-01-24T00:14:41;-0.35;99.99
70851;DHT22;58475;49.662;9.636;2023-01-24T00:17:06;-0.32;99.99
70851;DHT22;58475;49.662;9.636;2023-01-24T00:19:35;-0.32;99.99
70851;DHT22;58475;49.662;9.636;2023-01-24T00:22:04;-0.35;99.99
70851;DHT22;58475;49.662;9.636;2023-01-24T00:24:29;-0.34;99.99
70851;DHT22;58475;49.662;9.636;2023-01-24T00:26:55;-0.31;99.99
70851;DHT22;58475;49.662;9.636;2023-01-24T00:29:21;-0.32;99.99
70851;DHT22;58475;49.662;9.636;2023-01-24T00:31:46;-0.31;99.99
70851;DHT22;58475;49.662;9.636;2023-01-24T00:34:12;-0.31;99.99
70851;DHT22;58475;49.662;9.636;2023-01-24T00:36:37;-0.29;99.99
70851;DHT22;58475;49.662;9.636;2023-01-24T00:39:03;-0.31;99.99
70851;DHT22;58475;49.662;9.636;2023-01-24T00:41:28;-0.29;99.99
70851;DHT22;58475;49.662;9.636;2023-01-24T00:43:54;-0.32;99.99
70851;DHT22;58475;49.662;9.636;2023-01-24T00:46:19;-0.29;99.99
70851;DHT22;58475;49.662;9.636;2023-01-24T00:48:47;-0.25;99.99
70851;DHT22;58475;49.662;9.636;2023-01-24T00:51:13;-0.28;99.99
70851;DHT22;58475;49.662;9.636;2023-01-24T00:53:38;-0.25;99.99
70851;DHT22;58475;49.662;9.636;2023-01-24T00:56:04;-0.22;99.99
70851;DHT22;58475;49.662;9.636;2023-01-24T00:58:31;-0.22;99.99
70851;DHT22;58475;49.662;9.636;2023-01-24T01:00:57;-0.21;99.99
70851;DHT22;58475;49.662;9.636;2023-01-24T01:03:25;-0.19;99.99
70851;DHT22;58475;49.662;9.636;2023-01-24T01:06:04;-0.21;99.99
70851;DHT22;58475;49.662;9.636;2023-01-24T01:08:30;-0.18;99.99
70851;DHT22;58475;49.662;9.636;2023-01-24T01:10:56;-0.17;99.99
70851;DHT22;58475;49.662;9.636;2023-01-24T01:13:21;-0.15;99.99
70851;DHT22;58475;49.662;9.636;2023-01-24T01:15:47;-0.17;99.99
70851;DHT22;58475;49.662;9.636;2023-01-24T01:18:12;-0.18;99.99
70851;DHT22;58475;49.662;9.636;2023-01-24T01:20:38;-0.15;99.99
70851;DHT22;58475;49.662;9.636;2023-01-24T01:23:03;-0.15;99.99
70851;DHT22;58475;49.662;9.636;2023-01-24T01:25:29;-0.17;99.99
70851;DHT22;58475;49.662;9.636;2023-01-24T01:27:54;-0.17;99.99
70851;DHT22;58475;49.662;9.636;2023-01-24T01:30:20;-0.18;99.99
70851;DHT22;58475;49.662;9.636;2023-01-24T01:32:45;-0.18;99.99
70851;DHT22;58475;49.662;9.636;2023-01-24T01:35:12;-0.21;99.99
70851;DHT22;58475;49.662;9.636;2023-01-24T01:37:38;-0.15;99.99
70851;DHT22;58475;49.662;9.636;2023-01-24T01:40:05;-0.19;99.99
70851;DHT22;58475;49.662;9.636;2023-01-24T01:45:34;-0.19;99.99
70851;DHT22;58475;49.662;9.636;2023-01-24T01:48:04;-0.18;99.99
70851;DHT22;58475;49.662;9.636;2023-01-24T01:50:37;-0.21;99.99
70851;DHT22;58475;49.662;9.636;2023-01-24T01:53:04;-0.21;99.99
70851;DHT22;58475;49.662;9.636;2023-01-24T01:55:33;-0.21;99.99
70851;DHT22;58475;49.662;9.636;2023-01-24T01:58:00;-0.21;99.99
70851;DHT22;58475;49.662;9.636;2023-01-24T02:00:26;-0.19;99.99
70851;DHT22;58475;49.662;9.636;2023-01-24T02:03:13;-0.22;99.99
70851;DHT22;58475;49.662;9.636;2023-01-24T02:13:39;-0.17;99.99
70851;DHT22;58475;49.662;9.636;2023-01-24T02:16:12;-0.17;99.99
70851;DHT22;58475;49.662;9.636;2023-01-24T02:18:40;-0.17;99.99
70851;DHT22;58475;49.662;9.636;2023-01-24T02:21:15;-0.18;99.99
70851;DHT22;58475;49.662;9.636;2023-01-24T02:24:03;-0.17;99.99
70851;DHT22;58475;49.662;9.636;2023-01-24T02:26:30;-0.19;99.99
70851;DHT22;58475;49.662;9.636;2023-01-24T02:28:59;-0.21;99.99
70851;DHT22;58475;49.662;9.636;2023-01-24T02:31:26;-0.19;99.99
70851;DHT22;58475;49.662;9.636;2023-01-24T02:33:52;-0.19;99.99
70851;DHT22;58475;49.662;9.636;2023-01-24T02:36:33;-0.21;99.99
70851;DHT22;58475;49.662;9.636;2023-01-24T02:39:15;-0.18;99.99
70851;DHT22;58475;49.662;9.636;2023-01-24T02:41:47;-0.21;99.99
70851;DHT22;58475;49.662;9.636;2023-01-24T02:44:21;-0.24;99.99
70851;DHT22;58475;49.662;9.636;2023-01-24T02:46:48;-0.21;99.99
70851;DHT22;58475;49.662;9.636;2023-01-24T02:49:13;-0.24;99.99
70851;DHT22;58475;49.662;9.636;2023-01-24T02:51:39;-0.24;99.99
70851;DHT22;58475;49.662;9.636;2023-01-24T02:54:23;-0.22;99.99
70851;DHT22;58475;49.662;9.636;2023-01-24T02:56:48;-0.22;99.99
70851;DHT22;58475;49.662;9.636;2023-01-24T02:59:32;-0.19;99.99
70851;DHT22;58475;49.662;9.636;2023-01-24T03:01:58;-0.18;99.99
70851;DHT22;58475;49.662;9.636;2023-01-24T03:04:24;-0.18;99.99
70851;DHT22;58475;49.662;9.636;2023-01-24T03:06:49;-0.19;99.99
70851;DHT22;58475;49.662;9.636;2023-01-24T03:09:15;-0.22;99.99
70851;DHT22;58475;49.662;9.636;2023-01-24T03:11:46;-0.19;99.99
70851;DHT22;58475;49.662;9.636;2023-01-24T03:14:13;-0.18;99.99
70851;DHT22;58475;49.662;9.636;2023-01-24T03:16:57;-0.19;99.99
70851;DHT22;58475;49.662;9.636;2023-01-24T03:19:41;-0.18;99.99
70851;DHT22;58475;49.662;9.636;2023-01-24T03:22:26;-0.18;99.99
70851;DHT22;58475;49.662;9.636;2023-01-24T03:25:10;-0.18;99.99
70851;DHT22;58475;49.662;9.636;2023-01-24T03:27:53;-0.18;99.99
70851;DHT22;58475;49.662;9.636;2023-01-24T03:30:38;-0.18;99.99
70851;DHT22;58475;49.662;9.636;2023-01-24T03:33:22;-0.17;99.99
70851;DHT22;58475;49.662;9.636;2023-01-24T03:36:09;-0.19;99.99
70851;DHT22;58475;49.662;9.636;2023-01-24T03:38:46;-0.18;99.99
70851;DHT22;58475;49.662;9.636;2023-01-24T03:41:30;-0.17;99.99
70851;DHT22;58475;49.662;9.636;2023-01-24T03:43:56;-0.15;99.99
70851;DHT22;58475;49.662;9.636;2023-01-24T03:46:21;-0.14;99.99
70851;DHT22;58475;49.662;9.636;2023-01-24T03:48:49;-0.17;99.99
70851;DHT22;58475;49.662;9.636;2023-01-24T03:51:15;-0.15;99.99
70851;DHT22;58475;49.662;9.636;2023-01-24T03:53:59;-0.14;99.99
70851;DHT22;58475;49.662;9.636;2023-01-24T03:56:29;-0.15;99.99
70851;DHT22;58475;49.662;9.636;2023-01-24T03:58:58;-0.15;99.99
70851;DHT22;58475;49.662;9.636;2023-01-24T04:01:27;-0.13;99.99
70851;DHT22;58475;49.662;9.636;2023-01-24T04:04:13;-0.14;99.99
70851;DHT22;58475;49.662;9.636;2023-01-24T04:06:38;-0.13;99.99
70851;DHT22;58475;49.662;9.636;2023-01-24T04:09:07;-0.11;99.99
70851;DHT22;58475;49.662;9.636;2023-01-24T04:11:35;-0.13;99.99
70851;DHT22;58475;49.662;9.636;2023-01-24T04:14:10;-0.14;99.99
70851;DHT22;58475;49.662;9.636;2023-01-24T04:16:44;-0.13;99.99
70851;DHT22;58475;49.662;9.636;2023-01-24T04:19:17;-0.13;99.99
70851;DHT22;58475;49.662;9.636;2023-01-24T04:21:42;-0.11;99.99
70851;DHT22;58475;49.662;9.636;2023-01-24T04:24:10;-0.14;99.99
70851;DHT22;58475;49.662;9.636;2023-01-24T04:26:38;-0.13;99.99
70851;DHT22;58475;49.662;9.636;2023-01-24T04:29:05;-0.13;99.99
70851;DHT22;58475;49.662;9.636;2023-01-24T04:31:31;-0.13;99.99
70851;DHT22;58475;49.662;9.636;2023-01-24T04:34:15;-0.10;99.99
70851;DHT22;58475;49.662;9.636;2023-01-24T04:36:41;-0.11;99.99
70851;DHT22;58475;49.662;9.636;2023-01-24T04:39:06;-0.10;99.99
70851;DHT22;58475;49.662;9.636;2023-01-24T04:41:44;-0.10;99.99
70851;DHT22;58475;49.662;9.636;2023-01-24T04:44:10;-0.10;99.99
70851;DHT22;58475;49.662;9.636;2023-01-24T04:46:36;-0.11;99.99
70851;DHT22;58475;49.662;9.636;2023-01-24T04:49:02;-0.11;99.99
70851;DHT22;58475;49.662;9.636;2023-01-24T04:51:38;-0.10;99.99
70851;DHT22;58475;49.662;9.636;2023-01-24T04:54:11;-0.13;99.99
70851;DHT22;58475;49.662;9.636;2023-01-24T04:56:37;-0.10;99.99
70851;DHT22;58475;49.662;9.636;2023-01-24T04:59:03;-0.10;99.99
70851;DHT22;58475;49.662;9.636;2023-01-24T05:01:29;-0.07;99.99
70851;DHT22;58475;49.662;9.636;2023-01-24T05:04:02;-0.07;99.99
70851;DHT22;58475;49.662;9.636;2023-01-24T05:06:32;-0.06;99.99
70851;DHT22;58475;49.662;9.636;2023-01-24T05:08:59;-0.07;99.99
70851;DHT22;58475;49.662;9.636;2023-01-24T05:11:32;-0.07;99.99
70851;DHT22;58475;49.662;9.636;2023-01-24T05:14:02;-0.07;99.99
70851;DHT22;58475;49.662;9.636;2023-01-24T05:16:27;-0.04;99.99
70851;DHT22;58475;49.662;9.636;2023-01-24T05:18:53;-0.07;99.99
70851;DHT22;58475;49.662;9.636;2023-01-24T05:21:19;-0.07;99.99
70851;DHT22;58475;49.662;9.636;2023-01-24T05:23:49;-0.04;99.99
70851;DHT22;58475;49.662;9.636;2023-01-24T05:26:16;-0.03;99.99
70851;DHT22;58475;49.662;9.636;2023-01-24T05:28:42;-0.04;99.99
70851;DHT22;58475;49.662;9.636;2023-01-24T05:31:07;-0.07;99.99
70851;DHT22;58475;49.662;9.636;2023-01-24T05:33:34;-0.03;99.99
70851;DHT22;58475;49.662;9.636;2023-01-24T05:36:05;-0.04;99.99
70851;DHT22;58475;49.662;9.636;2023-01-24T05:38:34;-0.04;99.99
70851;DHT22;58475;49.662;9.636;2023-01-24T05:41:01;-0.01;99.99
70851;DHT22;58475;49.662;9.636;2023-01-24T05:43:28;-0.04;99.99
70851;DHT22;58475;49.662;9.636;2023-01-24T05:46:03;-0.04;99.99
70851;DHT22;58475;49.662;9.636;2023-01-24T05:48:33;0.02;99.99
70851;DHT22;58475;49.662;9.636;2023-01-24T05:51:01;-0.06;99.99
70851;DHT22;58475;49.662;9.636;2023-01-24T05:53:28;-0.03;99.99
70851;DHT22;58475;49.662;9.636;2023-01-24T05:55:59;-0.01;99.99
70851;DHT22;58475;49.662;9.636;2023-01-24T05:58:26;0.02;99.99
70851;DHT22;58475;49.662;9.636;2023-01-24T06:01:09;-0.03;99.99
70851;DHT22;58475;49.662;9.636;2023-01-24T06:03:40;0.00;99.99
70851;DHT22;58475;49.662;9.636;2023-01-24T06:06:07;-0.01;99.99
70851;DHT22;58475;49.662;9.636;2023-01-24T06:08:34;-0.06;99.99
70851;DHT22;58475;49.662;9.636;2023-01-24T06:11:05;0.04;99.99
70851;DHT22;58475;49.662;9.636;2023-01-24T06:13:31;0.00;99.99
70851;DHT22;58475;49.662;9.636;2023-01-24T06:16:03;0.00;99.99
70851;DHT22;58475;49.662;9.636;2023-01-24T06:18:30;0.00;99.99
70851;DHT22;58475;49.662;9.636;2023-01-24T06:20:56;-0.01;99.99
70851;DHT22;58475;49.662;9.636;2023-01-24T06:23:26;0.03;99.99
70851;DHT22;58475;49.662;9.636;2023-01-24T06:25:57;0.00;99.99
70851;DHT22;58475;49.662;9.636;2023-01-24T06:28:23;0.02;99.99
70851;DHT22;58475;49.662;9.636;2023-01-24T06:30:59;0.03;99.99
70851;DHT22;58475;49.662;9.636;2023-01-24T06:38:45;0.06;99.99
70851;DHT22;58475;49.662;9.636;2023-01-24T06:41:15;0.04;99.99
70851;DHT22;58475;49.662;9.636;2023-01-24T06:43:42;0.06;99.99
70851;DHT22;58475;49.662;9.636;2023-01-24T06:46:08;0.04;99.99
70851;DHT22;58475;49.662;9.636;2023-01-24T06:48:34;0.04;99.99
70851;DHT22;58475;49.662;9.636;2023-01-24T06:50:59;0.06;99.99
70851;DHT22;58475;49.662;9.636;2023-01-24T06:53:25;0.07;99.99
70851;DHT22;58475;49.662;9.636;2023-01-24T06:55:50;0.10;99.99
70851;DHT22;58475;49.662;9.636;2023-01-24T06:58:16;0.07;99.99
70851;DHT22;58475;49.662;9.636;2023-01-24T07:00:41;0.07;99.99
70851;DHT22;58475;49.662;9.636;2023-01-24T07:03:07;0.09;99.99
70851;DHT22;58475;49.662;9.636;2023-01-24T07:05:34;0.07;99.99
70851;DHT22;58475;49.662;9.636;2023-01-24T07:08:00;0.06;99.99
70851;DHT22;58475;49.662;9.636;2023-01-24T07:10:26;0.07;99.99
70851;DHT22;58475;49.662;9.636;2023-01-24T07:12:51;0.04;99.99
70851;DHT22;58475;49.662;9.636;2023-01-24T07:15:17;0.06;99.99
70851;DHT22;58475;49.662;9.636;2023-01-24T07:17:43;0.07;99.99
70851;DHT22;58475;49.662;9.636;2023-01-24T07:20:11;0.06;99.99
70851;DHT22;58475;49.662;9.636;2023-01-24T07:22:37;0.04;99.99
70851;DHT22;58475;49.662;9.636;2023-01-24T07:25:05;0.06;99.99
70851;DHT22;58475;49.662;9.636;2023-01-24T07:27:31;0.06;99.99
70851;DHT22;58475;49.662;9.636;2023-01-24T07:29:56;0.07;99.99
70851;DHT22;58475;49.662;9.636;2023-01-24T07:32:22;0.06;99.99
70851;DHT22;58475;49.662;9.636;2023-01-24T07:34:47;0.03;99.99
70851;DHT22;58475;49.662;9.636;2023-01-24T07:37:13;0.02;99.99
70851;DHT22;58475;49.662;9.636;2023-01-24T07:39:38;0.09;99.99
70851;DHT22;58475;49.662;9.636;2023-01-24T07:42:04;0.11;99.99
70851;DHT22;58475;49.662;9.636;2023-01-24T07:44:29;0.13;99.99
70851;DHT22;58475;49.662;9.636;2023-01-24T07:46:54;0.09;99.99
70851;DHT22;58475;49.662;9.636;2023-01-24T07:49:20;0.07;99.99
70851;DHT22;58475;49.662;9.636;2023-01-24T07:51:45;0.10;99.99
70851;DHT22;58475;49.662;9.636;2023-01-24T07:54:13;0.11;99.99
70851;DHT22;58475;49.662;9.636;2023-01-24T07:56:39;0.11;99.99
70851;DHT22;58475;49.662;9.636;2023-01-24T07:59:04;0.10;99.99
70851;DHT22;58475;49.662;9.636;2023-01-24T08:01:30;0.14;99.99
70851;DHT22;58475;49.662;9.636;2023-01-24T08:03:56;0.09;99.99
70851;DHT22;58475;49.662;9.636;2023-01-24T08:06:22;0.18;99.99
70851;DHT22;58475;49.662;9.636;2023-01-24T08:08:47;0.17;99.99
70851;DHT22;58475;49.662;9.636;2023-01-24T08:11:13;0.13;99.99
70851;DHT22;58475;49.662;9.636;2023-01-24T08:13:41;0.10;99.99
70851;DHT22;58475;49.662;9.636;2023-01-24T08:16:07;0.13;99.99
70851;DHT22;58475;49.662;9.636;2023-01-24T08:18:33;0.20;99.99
70851;DHT22;58475;49.662;9.636;2023-01-24T08:20:58;0.11;99.99
70851;DHT22;58475;49.662;9.636;2023-01-24T08:23:23;0.18;99.99
70851;DHT22;58475;49.662;9.636;2023-01-24T08:25:49;0.10;99.99
70851;DHT22;58475;49.662;9.636;2023-01-24T08:28:15;0.18;99.99
70851;DHT22;58475;49.662;9.636;2023-01-24T08:30:40;0.20;99.99
70851;DHT22;58475;49.662;9.636;2023-01-24T08:33:06;0.13;99.99
70851;DHT22;58475;49.662;9.636;2023-01-24T08:35:32;0.21;99.99
70851;DHT22;58475;49.662;9.636;2023-01-24T08:37:58;0.24;99.99
70851;DHT22;58475;49.662;9.636;2023-01-24T08:40:24;0.23;99.99
70851;DHT22;58475;49.662;9.636;2023-01-24T08:42:50;0.18;99.99
70851;DHT22;58475;49.662;9.636;2023-01-24T08:45:16;0.17;99.99
70851;DHT22;58475;49.662;9.636;2023-01-24T08:47:41;0.21;99.99
70851;DHT22;58475;49.662;9.636;2023-01-24T08:50:08;0.24;99.99
70851;DHT22;58475;49.662;9.636;2023-01-24T08:54:23;0.66;99.65
70851;DHT22;58475;49.662;9.636;2023-01-24T08:56:48;0.44;99.99
70851;DHT22;58475;49.662;9.636;2023-01-24T08:59:14;0.44;99.99
70851;DHT22;58475;49.662;9.636;2023-01-24T09:01:39;0.34;99.99
70851;DHT22;58475;49.662;9.636;2023-01-24T09:04:05;0.40;99.99
70851;DHT22;58475;49.662;9.636;2023-01-24T09:06:31;0.38;99.99
70851;DHT22;58475;49.662;9.636;2023-01-24T09:08:56;0.47;99.99
70851;DHT22;58475;49.662;9.636;2023-01-24T09:11:22;0.50;99.99
70851;DHT22;58475;49.662;9.636;2023-01-24T09:13:47;0.43;99.99
70851;DHT22;58475;49.662;9.636;2023-01-24T09:16:13;0.37;99.99
70851;DHT22;58475;49.662;9.636;2023-01-24T09:18:38;0.43;99.99
70851;DHT22;58475;49.662;9.636;2023-01-24T09:21:04;0.51;99.99
70851;DHT22;58475;49.662;9.636;2023-01-24T09:23:29;0.53;99.99
70851;DHT22;58475;49.662;9.636;2023-01-24T09:25:55;0.45;99.99
70851;DHT22;58475;49.662;9.636;2023-01-24T09:28:21;0.50;99.99
70851;DHT22;58475;49.662;9.636;2023-01-24T09:30:50;0.40;99.99
70851;DHT22;58475;49.662;9.636;2023-01-24T09:33:17;0.44;99.99
70851;DHT22;58475;49.662;9.636;2023-01-24T09:35:53;0.55;99.99
70851;DHT22;58475;49.662;9.636;2023-01-24T09:38:19;0.54;99.99
70851;DHT22;58475;49.662;9.636;2023-01-24T09:41:37;0.53;99.99
70851;DHT22;58475;49.662;9.636;2023-01-24T09:48:36;0.58;99.99
70851;DHT22;58475;49.662;9.636;2023-01-24T09:51:06;0.57;99.99
70851;DHT22;58475;49.662;9.636;2023-01-24T09:53:43;0.57;99.99
70851;DHT22;58475;49.662;9.636;2023-01-24T09:56:22;0.62;99.99
70851;DHT22;58475;49.662;9.636;2023-01-24T09:59:03;0.48;99.99
70851;DHT22;58475;49.662;9.636;2023-01-24T10:01:37;0.50;99.99
70851;DHT22;58475;49.662;9.636;2023-01-24T10:04:27;0.53;99.99
70851;DHT22;58475;49.662;9.636;2023-01-24T10:12:34;0.51;99.99
70851;DHT22;58475;49.662;9.636;2023-01-24T10:15:27;0.58;99.99
70851;DHT22;58475;49.662;9.636;2023-01-24T10:23:52;0.51;99.99
70851;DHT22;58475;49.662;9.636;2023-01-24T10:26:11;0.65;99.99
70851;DHT22;58475;49.662;9.636;2023-01-24T10:28:47;0.53;99.99
70851;DHT22;58475;49.662;9.636;2023-01-24T10:31:18;0.54;99.99
70851;DHT22;58475;49.662;9.636;2023-01-24T10:33:46;0.64;99.99
70851;DHT22;58475;49.662;9.636;2023-01-24T10:36:33;0.50;99.99
70851;DHT22;58475;49.662;9.636;2023-01-24T10:39:03;0.55;99.99
70851;DHT22;58475;49.662;9.636;2023-01-24T10:41:30;0.54;99.99
70851;DHT22;58475;49.662;9.636;2023-01-24T10:47:15;0.57;99.99
70851;DHT22;58475;49.662;9.636;2023-01-24T10:49:51;0.55;99.99
70851;DHT22;58475;49.662;9.636;2023-01-24T10:52:20;0.60;99.99
70851;DHT22;58475;49.662;9.636;2023-01-24T10:57:37;0.69;99.99
70851;DHT22;58475;49.662;9.636;2023-01-24T11:00:15;0.61;99.99
70851;DHT22;58475;49.662;9.636;2023-01-24T11:02:41;0.65;99.99
70851;DHT22;58475;49.662;9.636;2023-01-24T11:05:12;0.69;99.99
70851;DHT22;58475;49.662;9.636;2023-01-24T11:07:48;0.66;99.99
70851;DHT22;58475;49.662;9.636;2023-01-24T11:10:25;0.65;99.99
70851;DHT22;58475;49.662;9.636;2023-01-24T11:12:56;0.65;99.99
70851;DHT22;58475;49.662;9.636;2023-01-24T11:15:26;0.81;99.99
70851;DHT22;58475;49.662;9.636;2023-01-24T11:17:54;0.66;99.99
70851;DHT22;58475;49.662;9.636;2023-01-24T11:20:35;0.54;99.99
70851;DHT22;58475;49.662;9.636;2023-01-24T11:23:03;0.58;99.99
70851;DHT22;58475;49.662;9.636;2023-01-24T11:25:28;0.60;99.99
70851;DHT22;58475;49.662;9.636;2023-01-24T11:27:54;0.53;99.99
70851;DHT22;58475;49.662;9.636;2023-01-24T11:30:21;0.55;99.99
70851;DHT22;58475;49.662;9.636;2023-01-24T11:32:56;0.57;99.99
70851;DHT22;58475;49.662;9.636;2023-01-24T11:35:27;0.60;99.99
70851;DHT22;58475;49.662;9.636;2023-01-24T11:40:36;0.60;99.99
70851;DHT22;58475;49.662;9.636;2023-01-24T11:46:37;0.58;99.99
70851;DHT22;58475;49.662;9.636;2023-01-24T12:02:48;0.78;99.99
70851;DHT22;58475;49.662;9.636;2023-01-24T12:11:31;0.72;99.99
70851;DHT22;58475;49.662;9.636;2023-01-24T12:17:04;0.79;99.99
70851;DHT22;58475;49.662;9.636;2023-01-24T12:22:28;0.72;99.99
70851;DHT22;58475;49.662;9.636;2023-01-24T12:25:02;0.64;99.99
70851;DHT22;58475;49.662;9.636;2023-01-24T12:27:32;0.71;99.99
70851;DHT22;58475;49.662;9.636;2023-01-24T12:30:06;0.68;99.99
70851;DHT22;58475;49.662;9.636;2023-01-24T12:35:26;0.72;99.96
70851;DHT22;58475;49.662;9.636;2023-01-24T12:40:43;0.81;99.99
70851;DHT22;58475;49.662;9.636;2023-01-24T12:46:17;0.66;99.99
70851;DHT22;58475;49.662;9.636;2023-01-24T12:48:58;0.66;99.99
70851;DHT22;58475;49.662;9.636;2023-01-24T12:51:30;0.72;99.99
70851;DHT22;58475;49.662;9.636;2023-01-24T12:54:20;0.76;99.99
70851;DHT22;58475;49.662;9.636;2023-01-24T12:56:55;0.75;99.99
70851;DHT22;58475;49.662;9.636;2023-01-24T12:59:25;0.79;99.99
70851;DHT22;58475;49.662;9.636;2023-01-24T13:08:13;0.72;99.99
70851;DHT22;58475;49.662;9.636;2023-01-24T13:11:20;0.75;99.99
70851;DHT22;58475;49.662;9.636;2023-01-24T13:13:57;0.65;99.99
70851;DHT22;58475;49.662;9.636;2023-01-24T13:21:41;0.64;99.99
70851;DHT22;58475;49.662;9.636;2023-01-24T13:24:43;0.62;99.99
70851;DHT22;58475;49.662;9.636;2023-01-24T13:27:30;0.61;99.99
70851;DHT22;58475;49.662;9.636;2023-01-24T13:32:41;0.61;99.99
70851;DHT22;58475;49.662;9.636;2023-01-24T13:35:36;0.71;99.99
70851;DHT22;58475;49.662;9.636;2023-01-24T13:38:22;0.66;99.99
70851;DHT22;58475;49.662;9.636;2023-01-24T13:41:05;0.71;99.99
70851;DHT22;58475;49.662;9.636;2023-01-24T13:46:02;0.72;99.99
70851;DHT22;58475;49.662;9.636;2023-01-24T13:56:23;0.69;99.99
70851;DHT22;58475;49.662;9.636;2023-01-24T13:58:51;0.66;99.99
70851;DHT22;58475;49.662;9.636;2023-01-24T14:01:17;0.75;99.99
70851;DHT22;58475;49.662;9.636;2023-01-24T14:04:02;0.74;99.99
70851;DHT22;58475;49.662;9.636;2023-01-24T14:06:43;0.72;99.99
70851;DHT22;58475;49.662;9.636;2023-01-24T14:11:39;0.66;99.99
70851;DHT22;58475;49.662;9.636;2023-01-24T14:14:33;0.65;99.99
70851;DHT22;58475;49.662;9.636;2023-01-24T14:17:03;0.72;99.99
70851;DHT22;58475;49.662;9.636;2023-01-24T14:19:32;0.65;99.99
70851;DHT22;58475;49.662;9.636;2023-01-24T14:24:52;0.65;99.99
70851;DHT22;58475;49.662;9.636;2023-01-24T14:29:47;0.62;99.99
70851;DHT22;58475;49.662;9.636;2023-01-24T14:32:52;0.62;99.99
70851;DHT22;58475;49.662;9.636;2023-01-24T14:35:28;0.66;99.99
70851;DHT22;58475;49.662;9.636;2023-01-24T14:38:11;0.65;99.99
70851;DHT22;58475;49.662;9.636;2023-01-24T14:40:39;0.64;99.99
70851;DHT22;58475;49.662;9.636;2023-01-24T14:43:05;0.71;99.99
70851;DHT22;58475;49.662;9.636;2023-01-24T14:45:32;0.75;99.99
70851;DHT22;58475;49.662;9.636;2023-01-24T14:47:59;0.71;99.99
70851;DHT22;58475;49.662;9.636;2023-01-24T14:50:28;0.68;99.99
70851;DHT22;58475;49.662;9.636;2023-01-24T14:52:55;0.68;99.99
70851;DHT22;58475;49.662;9.636;2023-01-24T14:57:53;0.66;99.99
70851;DHT22;58475;49.662;9.636;2023-01-24T15:00:20;0.68;99.99
70851;DHT22;58475;49.662;9.636;2023-01-24T15:03:00;0.71;99.99
70851;DHT22;58475;49.662;9.636;2023-01-24T15:06:00;0.75;99.99
70851;DHT22;58475;49.662;9.636;2023-01-24T15:08:26;0.75;99.99
70851;DHT22;58475;49.662;9.636;2023-01-24T15:11:05;0.76;99.99
70851;DHT22;58475;49.662;9.636;2023-01-24T15:14:01;0.68;99.99
70851;DHT22;58475;49.662;9.636;2023-01-24T15:16:48;0.68;99.99
70851;DHT22;58475;49.662;9.636;2023-01-24T15:19:21;0.69;99.99
70851;DHT22;58475;49.662;9.636;2023-01-24T15:21:49;0.66;99.99
70851;DHT22;58475;49.662;9.636;2023-01-24T15:24:29;0.68;99.99
70851;DHT22;58475;49.662;9.636;2023-01-24T15:26:56;0.65;99.99
70851;DHT22;58475;49.662;9.636;2023-01-24T15:29:43;0.64;99.99
70851;DHT22;58475;49.662;9.636;2023-01-24T15:35:30;0.66;99.99
70851;DHT22;58475;49.662;9.636;2023-01-24T15:40:37;0.71;99.99
70851;DHT22;58475;49.662;9.636;2023-01-24T15:43:17;0.69;99.99
70851;DHT22;58475;49.662;9.636;2023-01-24T15:46:02;0.64;99.99
70851;DHT22;58475;49.662;9.636;2023-01-24T15:49:17;0.62;99.99
70851;DHT22;58475;49.662;9.636;2023-01-24T15:51:43;0.61;99.99
70851;DHT22;58475;49.662;9.636;2023-01-24T15:54:11;0.57;99.99
70851;DHT22;58475;49.662;9.636;2023-01-24T15:56:37;0.55;99.99
70851;DHT22;58475;49.662;9.636;2023-01-24T15:59:12;0.64;99.99
70851;DHT22;58475;49.662;9.636;2023-01-24T16:01:39;0.58;99.99
70851;DHT22;58475;49.662;9.636;2023-01-24T16:04:12;0.64;99.99
70851;DHT22;58475;49.662;9.636;2023-01-24T16:06:38;0.64;99.99
70851;DHT22;58475;49.662;9.636;2023-01-24T16:09:04;0.60;99.99
70851;DHT22;58475;49.662;9.636;2023-01-24T16:11:30;0.60;99.99
70851;DHT22;58475;49.662;9.636;2023-01-24T16:13:55;0.64;99.99
70851;DHT22;58475;49.662;9.636;2023-01-24T16:16:21;0.61;99.99
70851;DHT22;58475;49.662;9.636;2023-01-24T16:18:47;0.62;99.99
70851;DHT22;58475;49.662;9.636;2023-01-24T16:21:12;0.62;99.99
70851;DHT22;58475;49.662;9.636;2023-01-24T16:23:37;0.58;99.99
70851;DHT22;58475;49.662;9.636;2023-01-24T16:26:03;0.65;99.99
70851;DHT22;58475;49.662;9.636;2023-01-24T16:28:28;0.58;99.99
70851;DHT22;58475;49.662;9.636;2023-01-24T16:31:01;0.64;99.99
70851;DHT22;58475;49.662;9.636;2023-01-24T16:33:27;0.60;99.99
70851;DHT22;58475;49.662;9.636;2023-01-24T16:35:52;0.62;99.99
70851;DHT22;58475;49.662;9.636;2023-01-24T16:38:17;0.64;99.99
70851;DHT22;58475;49.662;9.636;2023-01-24T16:40:43;0.65;99.99
70851;DHT22;58475;49.662;9.636;2023-01-24T16:43:27;0.65;99.99
70851;DHT22;58475;49.662;9.636;2023-01-24T16:45:52;0.65;99.94
70851;DHT22;58475;49.662;9.636;2023-01-24T16:48:18;0.65;99.99
70851;DHT22;58475;49.662;9.636;2023-01-24T16:50:44;0.62;99.82
70851;DHT22;58475;49.662;9.636;2023-01-24T16:53:10;0.64;99.99
70851;DHT22;58475;49.662;9.636;2023-01-24T16:55:36;0.64;99.95
70851;DHT22;58475;49.662;9.636;2023-01-24T16:58:05;0.61;99.99
70851;DHT22;58475;49.662;9.636;2023-01-24T17:00:31;0.66;99.91
70851;DHT22;58475;49.662;9.636;2023-01-24T17:02:58;0.57;99.96
70851;DHT22;58475;49.662;9.636;2023-01-24T17:05:25;0.64;99.99
70851;DHT22;58475;49.662;9.636;2023-01-24T17:07:51;0.64;99.79
70851;DHT22;58475;49.662;9.636;2023-01-24T17:10:17;0.62;99.93
70851;DHT22;58475;49.662;9.636;2023-01-24T17:12:43;0.64;99.83
70851;DHT22;58475;49.662;9.636;2023-01-24T17:15:09;0.66;99.79
70851;DHT22;58475;49.662;9.636;2023-01-24T17:17:34;0.58;99.80
70851;DHT22;58475;49.662;9.636;2023-01-24T17:20:00;0.61;99.93
70851;DHT22;58475;49.662;9.636;2023-01-24T17:22:27;0.55;99.99
70851;DHT22;58475;49.662;9.636;2023-01-24T17:24:53;0.60;99.90
70851;DHT22;58475;49.662;9.636;2023-01-24T17:27:18;0.61;99.96
70851;DHT22;58475;49.662;9.636;2023-01-24T17:29:44;0.61;99.91
70851;DHT22;58475;49.662;9.636;2023-01-24T17:32:09;0.57;99.99
70851;DHT22;58475;49.662;9.636;2023-01-24T17:34:35;0.60;99.99
70851;DHT22;58475;49.662;9.636;2023-01-24T17:37:00;0.62;99.99
70851;DHT22;58475;49.662;9.636;2023-01-24T17:39:25;0.61;99.96
70851;DHT22;58475;49.662;9.636;2023-01-24T17:41:51;0.58;99.99
70851;DHT22;58475;49.662;9.636;2023-01-24T17:44:16;0.54;99.99
70851;DHT22;58475;49.662;9.636;2023-01-24T17:46:42;0.53;99.99
70851;DHT22;58475;49.662;9.636;2023-01-24T17:49:07;0.60;99.99
70851;DHT22;58475;49.662;9.636;2023-01-24T17:51:34;0.57;99.99
70851;DHT22;58475;49.662;9.636;2023-01-24T17:54:02;0.55;99.99
70851;DHT22;58475;49.662;9.636;2023-01-24T17:56:28;0.58;99.97
70851;DHT22;58475;49.662;9.636;2023-01-24T17:58:53;0.61;99.94